createdAt,value
2019-04-26T00:02:00.848Z,100766.22
2019-04-26T00:04:30.091Z,100766.05
2019-04-26T00:06:59.384Z,100766.22
2019-04-26T00:09:36.298Z,100763.33
2019-04-26T00:12:23.764Z,100752.97
2019-04-26T00:15:12.157Z,100757.74
2019-04-26T00:17:47.832Z,100750.77
2019-04-26T00:20:17.160Z,100753.48
2019-04-26T00:22:46.451Z,100751.26
2019-04-26T00:25:16.538Z,100745.50
2019-04-26T00:27:45.986Z,100741.59
2019-04-26T00:30:15.665Z,100747.52
2019-04-26T00:32:45.129Z,100743.30
2019-04-26T00:35:15.675Z,100735.98
2019-04-26T00:37:45.132Z,100734.63
2019-04-26T00:40:16.144Z,100730.72
2019-04-26T00:42:46.760Z,100726.11
2019-04-26T00:45:16.699Z,100720.33
2019-04-26T00:47:45.997Z,100715.23
2019-04-26T00:50:15.382Z,100715.06
2019-04-26T00:52:46.497Z,100722.20
2019-04-26T00:55:17.648Z,100723.22
2019-04-26T00:57:47.310Z,100728.83
2019-04-26T01:00:18.252Z,100759.94
2019-04-26T01:02:51.895Z,100814.70
2019-04-26T01:05:21.013Z,100828.80
2019-04-26T01:07:52.236Z,100748.89
2019-04-26T01:10:21.628Z,100721.68
2019-04-26T01:12:50.752Z,100742.57
2019-04-26T01:15:21.618Z,100819.45
2019-04-26T01:17:50.545Z,100846.31
2019-04-26T01:20:22.537Z,100847.84
2019-04-26T01:22:53.510Z,100821.30
2019-04-26T01:25:38.915Z,100824.02
2019-04-26T01:28:11.237Z,100833.02
2019-04-26T01:30:40.454Z,100808.20
2019-04-26T01:33:10.543Z,100768.36
2019-04-26T01:35:40.508Z,100762.26
2019-04-26T01:38:13.856Z,100803.40
2019-04-26T01:40:44.851Z,100825.38
2019-04-26T01:43:21.678Z,100830.13
2019-04-26T01:45:58.153Z,100800.88
2019-04-26T01:48:44.128Z,100760.70
2019-04-26T01:51:18.861Z,100739.78
2019-04-26T01:53:50.396Z,100759.67
2019-04-26T01:56:23.477Z,100799.81
2019-04-26T01:58:52.665Z,100804.41
2019-04-26T02:01:32.539Z,100787.06
2019-04-26T02:04:01.569Z,100775.63
2019-04-26T02:06:33.914Z,100789.91
2019-04-26T02:09:01.596Z,100791.61
2019-04-26T02:11:30.853Z,100776.10
2019-04-26T02:13:59.899Z,100773.38
2019-04-26T02:16:29.190Z,100775.40
2019-04-26T02:18:58.562Z,100775.40
2019-04-26T02:21:32.429Z,100782.07
2019-04-26T02:24:30.143Z,100777.98
2019-04-26T02:27:00.476Z,100762.84
2019-04-26T02:29:30.404Z,100743.79
2019-04-26T02:32:04.749Z,100744.85
2019-04-26T02:34:37.685Z,100757.43
2019-04-26T02:37:08.799Z,100758.97
2019-04-26T02:39:40.821Z,100765.64
2019-04-26T02:42:40.769Z,100752.17
2019-04-26T02:46:00.825Z,100759.33
2019-04-26T02:48:49.464Z,100748.15
2019-04-26T02:51:22.512Z,100743.22
2019-04-26T02:54:46.973Z,100757.52
2019-04-26T02:57:25.308Z,100758.84
2019-04-26T03:00:01.028Z,100754.45
2019-04-26T03:02:31.137Z,100750.91
2019-04-26T03:05:04.771Z,100745.33
2019-04-26T03:08:05.835Z,100747.88
2019-04-26T03:10:44.404Z,100738.35
2019-04-26T03:13:38.066Z,100740.92
2019-04-26T03:16:20.319Z,100745.67
2019-04-26T03:18:59.665Z,100742.28
2019-04-26T03:21:37.817Z,100739.39
2019-04-26T03:24:22.443Z,100741.43
2019-04-26T03:27:14.516Z,100743.14
2019-04-26T03:30:18.303Z,100747.39
2019-04-26T03:32:57.255Z,100743.48
2019-04-26T03:35:57.092Z,100741.94
2019-04-26T03:38:43.448Z,100729.70
2019-04-26T03:41:23.779Z,100723.42
2019-04-26T03:44:06.165Z,100711.19
2019-04-26T03:47:09.076Z,100715.26
2019-04-26T03:50:06.422Z,100714.59
2019-04-26T03:53:15.300Z,100699.98
2019-04-26T03:56:26.301Z,100704.23
2019-04-26T03:59:23.943Z,100717.64
2019-04-26T04:02:19.792Z,100718.82
2019-04-26T04:05:04.726Z,100710.67
2019-04-26T04:07:45.166Z,100710.67
2019-04-26T04:10:15.267Z,100722.55
2019-04-26T04:13:42.991Z,100729.52
2019-04-26T04:16:25.373Z,100732.59
2019-04-26T04:19:00.388Z,100721.70
2019-04-26T04:21:46.932Z,100726.13
2019-04-26T04:24:52.885Z,100723.72
2019-04-26T04:27:39.327Z,100721.70
2019-04-26T04:30:40.010Z,100703.36
2019-04-26T04:33:33.138Z,100696.56
2019-04-26T04:36:07.836Z,100710.00
2019-04-26T04:39:18.887Z,100704.56
2019-04-26T04:42:04.897Z,100702.19
2019-04-26T04:45:02.911Z,100714.23
2019-04-26T04:47:46.037Z,100713.06
2019-04-26T04:50:24.567Z,100701.66
2019-04-26T04:53:31.685Z,100701.17
2019-04-26T04:56:27.220Z,100702.16
2019-04-26T04:58:59.881Z,100708.60
2019-04-26T05:02:21.157Z,100706.67
2019-04-26T05:05:27.693Z,100712.92
2019-04-26T05:08:23.478Z,100716.92
2019-04-26T05:11:24.921Z,100728.43
2019-04-26T05:14:01.576Z,100717.22
2019-04-26T05:17:02.005Z,100716.06
2019-04-26T05:20:02.597Z,100721.96
2019-04-26T05:23:14.398Z,100717.78
2019-04-26T05:26:30.341Z,100716.38
2019-04-26T05:29:19.439Z,100712.78
2019-04-26T05:32:01.178Z,100712.78
2019-04-26T05:34:44.196Z,100711.80
2019-04-26T05:37:55.221Z,100710.80
2019-04-26T05:40:55.631Z,100712.73
2019-04-26T05:43:59.537Z,100705.48
2019-04-26T05:47:06.762Z,100709.86
2019-04-26T05:50:28.965Z,100708.66
2019-04-26T05:53:52.824Z,100703.73
2019-04-26T05:56:40.143Z,100698.21
2019-04-26T05:59:52.209Z,100695.92
2019-04-26T06:02:51.359Z,100698.50
2019-04-26T06:05:56.433Z,100702.14
2019-04-26T06:09:13.938Z,100691.78
2019-04-26T06:11:54.626Z,100689.14
2019-04-26T06:14:54.735Z,100689.47
2019-04-26T06:18:01.977Z,100699.38
2019-04-26T06:20:59.729Z,100703.60
2019-04-26T06:24:22.112Z,100709.61
2019-04-26T06:27:33.684Z,100714.63
2019-04-26T06:30:12.619Z,100709.66
2019-04-26T06:33:06.246Z,100714.15
2019-04-26T06:35:39.696Z,100717.64
2019-04-26T06:38:56.492Z,100713.66
2019-04-26T06:42:06.523Z,100706.82
2019-04-26T06:45:37.188Z,100698.84
2019-04-26T06:48:18.837Z,100703.20
2019-04-26T06:50:55.993Z,100722.50
2019-04-26T06:54:12.773Z,100730.33
2019-04-26T06:57:15.278Z,100728.53
2019-04-26T06:59:54.198Z,100722.42
2019-04-26T07:02:42.105Z,100736.62
2019-04-26T07:05:16.749Z,100750.98
2019-04-26T07:08:17.085Z,100754.63
2019-04-26T07:11:52.933Z,100771.69
2019-04-26T07:14:51.055Z,100782.87
2019-04-26T07:17:27.880Z,100764.80
2019-04-26T07:20:28.947Z,100752.16
2019-04-26T07:23:57.803Z,100758.51
2019-04-26T07:27:05.039Z,100764.14
2019-04-26T07:30:08.280Z,100722.16
2019-04-26T07:33:08.979Z,100697.05
2019-04-26T07:35:50.543Z,100684.43
2019-04-26T07:39:10.500Z,100704.14
2019-04-26T07:42:14.121Z,100717.70
2019-04-26T07:45:38.033Z,100711.13
2019-04-26T07:48:34.595Z,100697.83
2019-04-26T07:51:49.954Z,100675.87
2019-04-26T07:54:44.685Z,100622.11
2019-04-26T07:57:50.620Z,100641.07
2019-04-26T08:00:25.107Z,100686.07
2019-04-26T08:03:16.567Z,100741.30
2019-04-26T08:06:13.721Z,100747.69
2019-04-26T08:08:52.037Z,100769.27
2019-04-26T08:11:26.904Z,100774.57
2019-04-26T08:14:10.699Z,100792.39
2019-04-26T08:17:10.878Z,100810.05
2019-04-26T08:19:44.991Z,100808.19
2019-04-26T08:22:21.846Z,100808.14
2019-04-26T08:24:50.135Z,100799.20
2019-04-26T08:27:24.864Z,100789.32
2019-04-26T08:30:03.474Z,100778.16
2019-04-26T08:32:37.819Z,100778.82
2019-04-26T08:35:23.749Z,100794.53
2019-04-26T08:37:56.489Z,100798.92
2019-04-26T08:40:31.125Z,100793.05
2019-04-26T08:43:18.283Z,100792.77
2019-04-26T08:46:21.602Z,100789.55
2019-04-26T08:49:19.467Z,100785.92
2019-04-26T08:51:52.162Z,100785.61
2019-04-26T08:54:25.293Z,100791.14
2019-04-26T08:57:08.234Z,100781.39
2019-04-26T08:59:47.600Z,100786.34
2019-04-26T09:02:38.527Z,100804.64
2019-04-26T09:05:31.582Z,100810.70
2019-04-26T09:08:04.005Z,100804.28
2019-04-26T09:10:39.227Z,100797.06
2019-04-26T09:13:09.778Z,100781.35
2019-04-26T09:16:15.195Z,100790.27
2019-04-26T09:18:52.325Z,100791.78
2019-04-26T09:21:19.250Z,100792.71
2019-04-26T09:24:21.039Z,100808.95
2019-04-26T09:27:11.967Z,100802.20
2019-04-26T09:29:52.707Z,100795.98
2019-04-26T09:32:29.422Z,100799.59
2019-04-26T09:34:58.481Z,100813.72
2019-04-26T09:37:27.463Z,100817.91
2019-04-26T09:39:56.508Z,100813.95
2019-04-26T09:42:39.409Z,100814.77
2019-04-26T09:45:17.020Z,100823.70
2019-04-26T09:48:01.785Z,100823.90
2019-04-26T09:50:41.172Z,100817.92
2019-04-26T09:53:10.236Z,100824.69
2019-04-26T09:55:39.269Z,100829.67
2019-04-26T09:58:08.702Z,100825.66
2019-04-26T10:00:38.276Z,100819.66
2019-04-26T10:03:09.370Z,100813.64
2019-04-26T10:05:38.028Z,100812.05
2019-04-26T10:08:08.263Z,100804.70
2019-04-26T10:10:37.868Z,100827.00
2019-04-26T10:13:15.175Z,100838.72
2019-04-26T10:16:04.311Z,100845.03
2019-04-26T10:18:33.871Z,100842.30
2019-04-26T10:21:02.878Z,100841.97
2019-04-26T10:23:31.893Z,100848.21
2019-04-26T10:26:01.530Z,100850.75
2019-04-26T10:28:31.505Z,100845.36
2019-04-26T10:31:01.536Z,100843.09
2019-04-26T10:33:32.693Z,100832.67
2019-04-26T10:36:02.432Z,100834.02
2019-04-26T10:38:31.625Z,100845.52
2019-04-26T10:41:01.628Z,100849.78
2019-04-26T10:43:31.651Z,100849.70
2019-04-26T10:46:01.676Z,100853.98
2019-04-26T10:48:31.683Z,100856.95
2019-04-26T10:51:03.395Z,100861.52
2019-04-26T10:54:01.781Z,100857.06
2019-04-26T10:57:08.625Z,100861.02
2019-04-26T10:59:44.123Z,100859.66
2019-04-26T11:02:17.292Z,100854.08
2019-04-26T11:04:46.402Z,100852.34
2019-04-26T11:07:15.421Z,100860.47
2019-04-26T11:09:44.943Z,100861.77
2019-04-26T11:12:15.869Z,100860.92
2019-04-26T11:14:45.036Z,100862.48
2019-04-26T11:17:16.047Z,100872.85
2019-04-26T11:19:45.377Z,100869.03
2019-04-26T11:22:14.534Z,100885.05
2019-04-26T11:24:43.576Z,100879.17
2019-04-26T11:27:12.662Z,100905.72
2019-04-26T11:29:53.111Z,100901.20
2019-04-26T11:32:12.623Z,100912.73
2019-04-26T11:34:42.959Z,100915.98
2019-04-26T11:37:13.378Z,100915.79
2019-04-26T11:39:42.871Z,100904.98
2019-04-26T11:42:13.280Z,100897.16
2019-04-26T11:44:44.540Z,100914.20
2019-04-26T11:47:13.078Z,100911.19
2019-04-26T11:49:42.992Z,100919.33
2019-04-26T11:52:12.181Z,100911.00
2019-04-26T11:54:41.237Z,100919.27
2019-04-26T11:57:12.187Z,100911.56
2019-04-26T11:59:41.502Z,100915.89
2019-04-26T12:02:12.230Z,100914.91
2019-04-26T12:05:06.674Z,100906.80
2019-04-26T12:07:43.497Z,100921.79
2019-04-26T12:10:12.710Z,100913.06
2019-04-26T12:12:43.122Z,100927.88
2019-04-26T12:15:12.510Z,100929.71
2019-04-26T12:17:41.564Z,100931.16
2019-04-26T12:20:10.591Z,100935.05
2019-04-26T12:22:43.272Z,100937.64
2019-04-26T12:25:10.542Z,100946.31
2019-04-26T12:27:39.647Z,100946.52
2019-04-26T12:30:08.943Z,100943.15
2019-04-26T12:32:38.003Z,100948.89
2019-04-26T12:35:07.219Z,100947.85
2019-04-26T12:37:36.271Z,100950.02
2019-04-26T12:40:11.241Z,100957.30
2019-04-26T12:42:38.462Z,100958.01
2019-04-26T12:45:29.592Z,100955.87
2019-04-26T12:47:59.540Z,100964.98
2019-04-26T12:50:29.540Z,100963.36
2019-04-26T12:52:59.439Z,100977.19
2019-04-26T12:55:28.998Z,100972.16
2019-04-26T12:57:58.354Z,100970.06
2019-04-26T13:00:33.036Z,100958.92
2019-04-26T13:03:02.587Z,100951.63
2019-04-26T13:05:31.635Z,100953.57
2019-04-26T13:08:00.642Z,100947.55
2019-04-26T13:10:48.674Z,100953.16
2019-04-26T13:13:40.246Z,100951.39
2019-04-26T13:16:34.144Z,100967.34
2019-04-26T13:19:03.172Z,100957.30
2019-04-26T13:21:33.219Z,100955.41
2019-04-26T13:24:04.542Z,100959.48
2019-04-26T13:26:34.829Z,100957.72
2019-04-26T13:29:05.098Z,100958.43
2019-04-26T13:31:34.153Z,100953.85
2019-04-26T13:34:04.603Z,100947.98
2019-04-26T13:36:33.814Z,100952.28
2019-04-26T13:39:03.653Z,100945.67
2019-04-26T13:41:35.011Z,100941.58
2019-04-26T13:44:05.725Z,100943.85
2019-04-26T13:46:58.727Z,100930.91
2019-04-26T13:49:33.492Z,100925.02
2019-04-26T13:52:02.539Z,100934.36
2019-04-26T13:54:31.604Z,100924.73
2019-04-26T13:57:00.606Z,100927.99
2019-04-26T13:59:31.678Z,100933.80
2019-04-26T14:02:10.973Z,100934.67
2019-04-26T14:04:31.218Z,100953.39
2019-04-26T14:07:00.572Z,100957.17
2019-04-26T14:09:29.663Z,100964.16
2019-04-26T14:12:03.336Z,100971.03
2019-04-26T14:14:30.257Z,100975.88
2019-04-26T14:17:00.383Z,100983.44
2019-04-26T14:19:29.761Z,100988.19
2019-04-26T14:21:58.820Z,100990.54
2019-04-26T14:24:48.798Z,100980.77
2019-04-26T14:27:21.316Z,100982.90
2019-04-26T14:29:50.341Z,100977.38
2019-04-26T14:32:23.025Z,100986.78
2019-04-26T14:34:50.162Z,100982.45
2019-04-26T14:37:19.220Z,100984.46
2019-04-26T14:39:50.802Z,100985.53
2019-04-26T14:42:32.970Z,100981.01
2019-04-26T14:44:50.196Z,100987.91
2019-04-26T14:47:19.611Z,100994.53
2019-04-26T14:49:48.603Z,100993.62
2019-04-26T14:52:17.661Z,100990.00
2019-04-26T14:54:47.595Z,100985.33
2019-04-26T14:57:22.531Z,101001.44
2019-04-26T14:59:56.829Z,101006.55
2019-04-26T15:02:36.811Z,101008.62
2019-04-26T15:05:25.374Z,101011.34
2019-04-26T15:07:54.438Z,101010.83
2019-04-26T15:10:43.817Z,101017.72
2019-04-26T15:13:15.041Z,101025.77
2019-04-26T15:15:37.608Z,101023.41
2019-04-26T15:18:07.342Z,101028.98
2019-04-26T15:20:37.854Z,101034.42
2019-04-26T15:23:07.633Z,101036.80
2019-04-26T15:25:37.392Z,101032.23
2019-04-26T15:28:12.062Z,101041.07
2019-04-26T15:30:43.350Z,101040.06
2019-04-26T15:33:12.587Z,101048.19
2019-04-26T15:35:39.850Z,101046.71
2019-04-26T15:38:08.876Z,101052.15
2019-04-26T15:41:11.690Z,101052.99
2019-04-26T15:43:59.818Z,101052.64
2019-04-26T15:46:57.228Z,101061.22
2019-04-26T15:49:48.333Z,101054.64
2019-04-26T15:52:17.510Z,101060.09
2019-04-26T15:54:47.625Z,101067.98
2019-04-26T15:57:16.691Z,101072.64
2019-04-26T15:59:45.711Z,101073.16
2019-04-26T16:02:18.383Z,101077.24
2019-04-26T16:04:47.466Z,101074.50
2019-04-26T16:07:27.392Z,101072.64
2019-04-26T16:09:49.370Z,101077.74
2019-04-26T16:12:20.309Z,101075.88
2019-04-26T16:14:49.228Z,101083.55
2019-04-26T16:17:18.246Z,101076.89
2019-04-26T16:19:47.283Z,101076.55
2019-04-26T16:22:16.342Z,101068.55
2019-04-26T16:24:45.406Z,101081.30
2019-04-26T16:27:14.766Z,101073.12
2019-04-26T16:30:12.938Z,101080.10
2019-04-26T16:33:07.070Z,101073.00
2019-04-26T16:35:36.446Z,101072.46
2019-04-26T16:38:23.382Z,101082.53
2019-04-26T16:40:55.013Z,101080.97
2019-04-26T16:43:36.445Z,101072.80
2019-04-26T16:45:54.268Z,101073.30
2019-04-26T16:48:25.679Z,101070.52
2019-04-26T16:50:54.171Z,101073.22
2019-04-26T16:53:43.537Z,101079.70
2019-04-26T16:55:54.051Z,101084.94
2019-04-26T16:58:24.672Z,101091.73
2019-04-26T17:00:57.270Z,101092.17
2019-04-26T17:03:26.216Z,101090.50
2019-04-26T17:06:04.646Z,101094.59
2019-04-26T17:08:26.977Z,101100.04
2019-04-26T17:11:00.409Z,101103.12
2019-04-26T17:13:30.220Z,101100.20
2019-04-26T17:15:59.814Z,101100.04
2019-04-26T17:18:29.017Z,101101.41
2019-04-26T17:20:58.078Z,101095.44
2019-04-26T17:23:44.726Z,101084.34
2019-04-26T17:26:29.302Z,101087.41
2019-04-26T17:28:57.848Z,101065.45
2019-04-26T17:31:27.235Z,101065.02
2019-04-26T17:33:56.697Z,101068.92
2019-04-26T17:36:26.697Z,101087.32
2019-04-26T17:38:56.746Z,101089.55
2019-04-26T17:41:26.735Z,101090.04
2019-04-26T17:44:08.491Z,101088.16
2019-04-26T17:46:27.634Z,101093.63
2019-04-26T17:48:56.649Z,101097.55
2019-04-26T17:51:25.687Z,101096.34
2019-04-26T17:54:20.325Z,101097.87
2019-04-26T17:56:26.203Z,101114.89
2019-04-26T17:58:56.311Z,101123.02
2019-04-26T18:01:41.835Z,101124.06
2019-04-26T18:03:56.322Z,101128.16
2019-04-26T18:06:29.944Z,101135.78
2019-04-26T18:08:56.368Z,101132.17
2019-04-26T18:11:25.400Z,101137.07
2019-04-26T18:13:54.440Z,101152.91
2019-04-26T18:16:28.997Z,101157.66
2019-04-26T18:19:19.358Z,101157.21
2019-04-26T18:22:01.223Z,101157.21
2019-04-26T18:24:32.174Z,101160.85
2019-04-26T18:27:01.049Z,101159.46
2019-04-26T18:29:30.454Z,101156.42
2019-04-26T18:32:03.775Z,101155.64
2019-04-26T18:34:36.652Z,101162.47
2019-04-26T18:37:06.792Z,101153.59
2019-04-26T18:39:33.224Z,101165.48
2019-04-26T18:42:05.707Z,101165.19
2019-04-26T18:44:36.974Z,101165.48
2019-04-26T18:47:14.712Z,101166.52
2019-04-26T18:49:43.562Z,101174.80
2019-04-26T18:52:13.607Z,101160.45
2019-04-26T18:54:51.336Z,101158.13
2019-04-26T18:57:20.137Z,101162.36
2019-04-26T18:59:51.438Z,101180.42
2019-04-26T19:02:23.381Z,101186.53
2019-04-26T19:04:52.999Z,101176.83
2019-04-26T19:07:31.794Z,101176.70
2019-04-26T19:09:59.547Z,101181.94
2019-04-26T19:12:26.976Z,101180.69
2019-04-26T19:15:21.843Z,101170.70
2019-04-26T19:18:04.280Z,101171.33
2019-04-26T19:20:45.375Z,101181.88
2019-04-26T19:23:14.434Z,101183.81
2019-04-26T19:25:43.697Z,101184.89
2019-04-26T19:28:12.774Z,101188.25
2019-04-26T19:30:48.827Z,101198.94
2019-04-26T19:33:17.039Z,101203.75
2019-04-26T19:35:47.213Z,101217.11
2019-04-26T19:38:14.981Z,101212.94
2019-04-26T19:40:47.745Z,101209.97
2019-04-26T19:43:27.720Z,101191.58
2019-04-26T19:46:07.471Z,101185.38
2019-04-26T19:48:44.750Z,101195.91
2019-04-26T19:51:31.776Z,101186.52
2019-04-26T19:54:07.663Z,101176.11
2019-04-26T19:56:48.253Z,101181.80
2019-04-26T19:59:17.392Z,101192.93
2019-04-26T20:01:56.326Z,101183.33
2019-04-26T20:04:24.635Z,101173.61
2019-04-26T20:06:55.261Z,101163.95
2019-04-26T20:09:26.299Z,101173.75
2019-04-26T20:11:57.960Z,101168.27
2019-04-26T20:14:39.489Z,101163.70
2019-04-26T20:16:55.617Z,101168.30
2019-04-26T20:19:34.314Z,101172.25
2019-04-26T20:21:56.090Z,101161.67
2019-04-26T20:24:25.110Z,101155.46
2019-04-26T20:26:54.169Z,101159.98
2019-04-26T20:29:23.372Z,101172.19
2019-04-26T20:32:12.522Z,101177.67
2019-04-26T20:34:45.341Z,101189.97
2019-04-26T20:37:16.164Z,101191.14
2019-04-26T20:39:45.461Z,101183.51
2019-04-26T20:42:14.595Z,101189.89
2019-04-26T20:44:51.195Z,101184.38
2019-04-26T20:47:17.700Z,101188.38
2019-04-26T20:49:49.994Z,101187.23
2019-04-26T20:52:21.342Z,101191.88
2019-04-26T20:54:51.152Z,101189.81
2019-04-26T20:57:18.857Z,101186.10
2019-04-26T20:59:52.136Z,101179.47
2019-04-26T21:02:20.724Z,101178.47
2019-04-26T21:04:51.378Z,101187.92
2019-04-26T21:07:21.881Z,101192.73
2019-04-26T21:09:50.895Z,101192.02
2019-04-26T21:12:20.030Z,101187.66
2019-04-26T21:14:49.465Z,101178.48
2019-04-26T21:17:19.488Z,101173.01
2019-04-26T21:19:53.937Z,101172.57
2019-04-26T21:22:25.476Z,101167.72
2019-04-26T21:24:58.322Z,101164.64
2019-04-26T21:27:33.395Z,101156.14
2019-04-26T21:30:18.723Z,101159.42
2019-04-26T21:32:59.180Z,101139.38
2019-04-26T21:35:32.934Z,101132.48
2019-04-26T21:38:05.628Z,101136.08
2019-04-26T21:40:39.180Z,101142.19
2019-04-26T21:43:08.514Z,101141.83
2019-04-26T21:45:38.874Z,101134.71
2019-04-26T21:48:08.603Z,101141.55
2019-04-26T21:50:39.140Z,101141.55
2019-04-26T21:53:08.617Z,101150.80
2019-04-26T21:55:38.963Z,101149.34
2019-04-26T21:58:08.624Z,101152.84
2019-04-26T22:00:59.064Z,101158.16
2019-04-26T22:03:28.762Z,101174.40
2019-04-26T22:05:57.880Z,101189.28
2019-04-26T22:08:30.497Z,101194.24
2019-04-26T22:10:59.848Z,101207.15
2019-04-26T22:13:41.581Z,101213.63
2019-04-26T22:16:33.950Z,101222.49
2019-04-26T22:19:07.689Z,101226.00
2019-04-26T22:21:46.705Z,101227.30
2019-04-26T22:24:36.102Z,101219.04
2019-04-26T22:27:05.303Z,101220.19
2019-04-26T22:29:34.331Z,101218.78
2019-04-26T22:32:03.758Z,101217.73
2019-04-26T22:34:32.902Z,101222.95
2019-04-26T22:37:10.954Z,101216.68
2019-04-26T22:39:39.747Z,101208.69
2019-04-26T22:42:03.967Z,101208.17
2019-04-26T22:44:38.508Z,101210.06
2019-04-26T22:47:29.295Z,101205.84
2019-04-26T22:49:58.358Z,101210.64
2019-04-26T22:52:27.319Z,101208.12
2019-04-26T22:54:56.580Z,101209.48
2019-04-26T22:57:25.899Z,101208.81
2019-04-26T22:59:54.959Z,101196.95
2019-04-26T23:02:27.691Z,101198.31
2019-04-26T23:07:23.334Z,101195.60
2019-04-26T23:09:55.239Z,101200.62
2019-04-26T23:12:30.585Z,101192.78
2019-04-26T23:15:32.865Z,101178.47
2019-04-26T23:18:24.089Z,101175.09
2019-04-26T23:20:56.851Z,101179.52
2019-04-26T23:23:26.045Z,101184.64
2019-04-26T23:25:55.062Z,101188.35
2019-04-26T23:28:27.646Z,101189.70
2019-04-26T23:30:55.160Z,101186.30
2019-04-26T23:33:24.431Z,101174.77
2019-04-26T23:35:53.449Z,101164.84
2019-04-26T23:38:23.460Z,101164.84
2019-04-26T23:40:52.610Z,101171.69
2019-04-26T23:43:25.414Z,101178.83
2019-04-26T23:45:53.110Z,101192.89
2019-04-26T23:48:22.187Z,101189.69
2019-04-26T23:50:51.227Z,101181.34
2019-04-26T23:53:21.404Z,101187.41
2019-04-26T23:55:50.447Z,101188.38
2019-04-26T23:58:19.515Z,101194.44
